createdAt,value
2023-05-24T00:01:34.599Z,31.50
2023-05-24T00:06:56.171Z,21.73
2023-05-24T00:12:16.848Z,12.00
2023-05-24T00:17:41.255Z,26.38
2023-05-24T00:23:02.317Z,22.65
2023-05-24T00:28:22.941Z,31.13
2023-05-24T00:33:43.520Z,15.70
2023-05-24T00:39:04.411Z,33.15
2023-05-24T00:44:25.080Z,30.88
2023-05-24T00:49:46.343Z,27.42
2023-05-24T00:55:07.822Z,28.67
2023-05-24T01:00:29.298Z,39.08
2023-05-24T01:05:50.134Z,24.08
2023-05-24T01:11:59.981Z,23.27
2023-05-24T01:17:31.415Z,16.17
2023-05-24T01:23:16.645Z,33.90
2023-05-24T01:33:59.504Z,27.77
2023-05-24T01:39:21.608Z,19.50
2023-05-24T01:44:44.707Z,19.33
2023-05-24T01:50:40.360Z,37.28
2023-05-24T01:56:05.676Z,27.17
2023-05-24T02:01:28.054Z,29.75
2023-05-24T02:06:48.778Z,34.38
2023-05-24T02:12:10.752Z,41.42
2023-05-24T02:17:33.657Z,34.03
2023-05-24T02:22:54.312Z,40.15
2023-05-24T02:28:15.154Z,21.35
2023-05-24T02:33:36.778Z,29.23
2023-05-24T02:38:58.014Z,32.47
2023-05-24T02:44:19.192Z,33.30
2023-05-24T02:49:39.585Z,32.17
2023-05-24T02:55:00.271Z,41.50
2023-05-24T03:00:21.829Z,17.30
2023-05-24T03:05:43.008Z,25.17
2023-05-24T03:11:03.877Z,26.77
2023-05-24T03:16:25.442Z,44.10
2023-05-24T03:21:46.324Z,42.05
2023-05-24T03:27:07.221Z,35.40
2023-05-24T03:32:27.767Z,34.10
2023-05-24T03:37:48.838Z,24.65
2023-05-24T03:43:10.982Z,27.30
2023-05-24T03:48:52.358Z,26.95
2023-05-24T03:54:12.880Z,26.05
2023-05-24T03:59:35.481Z,24.90
2023-05-24T04:04:57.725Z,29.42
2023-05-24T04:10:18.319Z,32.28
2023-05-24T04:15:39.381Z,40.53
2023-05-24T04:21:00.260Z,33.33
2023-05-24T04:26:21.375Z,30.77
2023-05-24T04:31:44.994Z,31.33
2023-05-24T04:37:05.851Z,26.40
2023-05-24T04:42:31.812Z,27.67
2023-05-24T04:47:52.452Z,30.75
2023-05-24T04:53:14.554Z,24.52
2023-05-24T04:58:36.271Z,35.67
2023-05-24T05:03:58.863Z,26.75
2023-05-24T05:09:19.714Z,28.65
2023-05-24T05:14:40.607Z,27.08
2023-05-24T05:20:00.861Z,29.27
2023-05-24T05:25:21.616Z,37.90
2023-05-24T05:30:42.202Z,36.67
2023-05-24T05:36:03.114Z,32.28
2023-05-24T05:41:23.784Z,24.98
2023-05-24T05:46:46.235Z,36.25
2023-05-24T05:52:07.138Z,28.17
2023-05-24T05:57:28.151Z,17.98
2023-05-24T06:02:49.078Z,30.55
2023-05-24T06:08:09.514Z,15.15
2023-05-24T06:13:31.352Z,35.50
2023-05-24T06:19:04.439Z,32.22
2023-05-24T06:24:28.567Z,15.18
2023-05-24T06:29:49.116Z,20.42
2023-05-24T06:35:11.413Z,21.25
2023-05-24T06:40:31.894Z,35.42
2023-05-24T06:45:52.576Z,38.65
2023-05-24T06:51:13.312Z,28.98
2023-05-24T06:56:34.153Z,34.47
2023-05-24T07:01:59.537Z,19.67
2023-05-24T07:07:21.910Z,34.00
2023-05-24T07:12:42.760Z,19.58
2023-05-24T07:18:03.387Z,32.22
2023-05-24T07:23:24.245Z,33.30
2023-05-24T07:28:45.120Z,26.20
2023-05-24T07:34:06.352Z,38.33
2023-05-24T07:39:27.829Z,29.90
2023-05-24T07:44:48.638Z,28.40
2023-05-24T07:50:09.988Z,33.60
2023-05-24T07:55:30.207Z,37.38
2023-05-24T08:00:51.046Z,24.98
2023-05-24T08:06:12.812Z,30.50
2023-05-24T08:11:33.297Z,28.60
2023-05-24T08:16:54.436Z,28.77
2023-05-24T08:22:15.816Z,35.20
2023-05-24T08:27:37.081Z,23.42
2023-05-24T08:32:58.226Z,29.60
2023-05-24T08:38:19.430Z,33.63
2023-05-24T08:43:42.345Z,28.25
2023-05-24T08:49:04.157Z,30.48
2023-05-24T08:54:25.149Z,28.25
2023-05-24T08:59:45.625Z,32.97
2023-05-24T09:05:10.610Z,23.90
2023-05-24T09:10:45.020Z,20.05
2023-05-24T09:16:13.159Z,13.90
2023-05-24T09:21:34.022Z,22.40
2023-05-24T09:26:54.949Z,27.17
2023-05-24T09:32:16.193Z,15.65
2023-05-24T09:37:38.779Z,24.90
2023-05-24T09:43:10.324Z,20.40
2023-05-24T09:48:31.791Z,25.33
2023-05-24T09:53:57.332Z,21.98
2023-05-24T09:59:18.788Z,28.50
2023-05-24T10:04:40.146Z,22.77
2023-05-24T10:10:01.267Z,33.80
2023-05-24T10:15:22.361Z,19.98
2023-05-24T10:20:43.616Z,26.85
2023-05-24T10:26:07.556Z,20.08
2023-05-24T10:31:39.021Z,27.63
2023-05-24T10:36:59.697Z,18.38
2023-05-24T10:42:21.441Z,24.35
2023-05-24T10:47:42.312Z,16.23
2023-05-24T10:53:12.719Z,20.55
2023-05-24T10:58:59.410Z,18.70
2023-05-24T11:04:20.047Z,25.50
2023-05-24T11:10:09.471Z,25.42
2023-05-24T11:15:30.373Z,17.08
2023-05-24T11:20:52.522Z,21.02
2023-05-24T11:26:13.311Z,23.13
2023-05-24T11:31:36.204Z,11.18
2023-05-24T11:37:00.212Z,17.90
2023-05-24T11:42:23.023Z,25.75
2023-05-24T11:47:43.428Z,16.15
2023-05-24T11:53:04.151Z,19.90
2023-05-24T11:58:43.228Z,16.60
2023-05-24T12:04:06.284Z,18.27
2023-05-24T12:09:27.840Z,21.27
2023-05-24T12:14:48.321Z,17.63
2023-05-24T12:20:10.493Z,13.25
2023-05-24T12:25:31.421Z,15.43
2023-05-24T12:30:52.928Z,12.45
2023-05-24T12:36:13.542Z,10.65
2023-05-24T12:41:34.173Z,15.38
2023-05-24T12:46:56.305Z,11.13
2023-05-24T12:52:17.745Z,15.45
2023-05-24T12:57:38.584Z,18.90
2023-05-24T13:03:00.002Z,7.15
2023-05-24T13:08:20.870Z,10.90
2023-05-24T13:13:41.456Z,9.98
2023-05-24T13:19:02.297Z,19.15
2023-05-24T13:24:23.360Z,9.98
2023-05-24T13:29:59.174Z,14.15
2023-05-24T13:35:22.091Z,14.10
2023-05-24T13:40:42.858Z,21.35
2023-05-24T13:46:03.710Z,12.52
2023-05-24T13:51:24.809Z,12.32
2023-05-24T13:56:45.356Z,6.32
2023-05-24T14:02:06.002Z,11.05
2023-05-24T14:07:26.784Z,13.07
2023-05-24T14:12:56.141Z,10.38
2023-05-24T14:18:24.070Z,12.18
2023-05-24T14:23:44.826Z,9.43
2023-05-24T14:29:05.851Z,15.82
2023-05-24T14:34:26.538Z,12.85
2023-05-24T14:39:47.174Z,14.93
2023-05-24T14:45:08.661Z,10.25
2023-05-24T14:50:29.200Z,17.92
2023-05-24T14:55:49.414Z,10.52
2023-05-24T15:01:10.262Z,12.00
2023-05-24T15:06:34.808Z,16.50
2023-05-24T15:11:55.313Z,17.77
2023-05-24T15:17:16.147Z,16.25
2023-05-24T15:22:36.835Z,14.75
2023-05-24T15:27:58.126Z,18.08
2023-05-24T15:33:19.317Z,13.90
2023-05-24T15:38:40.681Z,12.48
2023-05-24T15:44:07.681Z,8.85
2023-05-24T15:49:28.463Z,6.90
2023-05-24T15:54:48.864Z,10.32
2023-05-24T16:00:09.870Z,8.98
2023-05-24T16:05:33.633Z,10.65
2023-05-24T16:10:55.097Z,11.75
2023-05-24T16:16:16.401Z,10.52
2023-05-24T16:21:37.225Z,9.70
2023-05-24T16:26:58.172Z,14.50
2023-05-24T16:32:19.014Z,14.18
2023-05-24T16:37:39.998Z,12.38
2023-05-24T16:43:00.816Z,10.20
2023-05-24T16:48:28.380Z,13.18
2023-05-24T16:53:50.038Z,10.88
2023-05-24T16:59:10.823Z,11.48
2023-05-24T17:04:31.621Z,9.80
2023-05-24T17:09:52.477Z,10.50
2023-05-24T17:15:14.439Z,9.75
2023-05-24T17:20:34.858Z,10.07
2023-05-24T17:25:55.726Z,9.13
2023-05-24T17:31:16.524Z,18.55
2023-05-24T17:36:37.561Z,7.13
2023-05-24T17:41:57.963Z,8.50
2023-05-24T17:47:18.591Z,15.07
2023-05-24T17:52:39.422Z,17.90
2023-05-24T17:58:00.202Z,10.77
2023-05-24T18:03:21.002Z,10.52
2023-05-24T18:08:43.419Z,13.38
2023-05-24T18:14:04.785Z,18.20
2023-05-24T18:19:26.486Z,15.88
2023-05-24T18:24:47.572Z,12.48
2023-05-24T18:30:09.373Z,7.57
2023-05-24T18:35:30.737Z,8.50
2023-05-24T18:40:51.814Z,13.82
2023-05-24T18:46:14.153Z,10.75
2023-05-24T18:51:35.094Z,13.90
2023-05-24T18:56:56.916Z,13.55
2023-05-24T19:02:18.680Z,10.35
2023-05-24T19:07:39.600Z,13.55
2023-05-24T19:13:03.402Z,12.15
2023-05-24T19:18:24.104Z,13.20
2023-05-24T19:23:44.919Z,11.45
2023-05-24T19:29:05.772Z,15.20
2023-05-24T19:34:28.701Z,12.32
2023-05-24T19:39:49.538Z,8.95
2023-05-24T19:45:10.612Z,14.43
2023-05-24T19:50:31.647Z,9.10
2023-05-24T19:55:52.263Z,12.77
2023-05-24T20:01:12.927Z,13.00
2023-05-24T20:06:33.502Z,15.73
2023-05-24T20:11:54.877Z,13.20
2023-05-24T20:17:15.767Z,11.98
2023-05-24T20:22:36.231Z,10.52
2023-05-24T20:27:57.965Z,13.82
2023-05-24T20:33:19.129Z,11.57
2023-05-24T20:38:39.786Z,11.93
2023-05-24T20:44:00.624Z,15.88
2023-05-24T20:49:21.351Z,18.80
2023-05-24T20:54:42.799Z,10.07
2023-05-24T21:00:04.937Z,15.73
2023-05-24T21:06:02.735Z,13.88
2023-05-24T21:11:23.696Z,16.77
2023-05-24T21:16:44.184Z,7.32
2023-05-24T21:22:04.978Z,15.50
2023-05-24T21:27:27.411Z,8.32
2023-05-24T21:32:48.461Z,10.52
2023-05-24T21:38:08.930Z,9.95
2023-05-24T21:43:29.300Z,17.73
2023-05-24T21:48:50.409Z,14.75
2023-05-24T21:54:11.293Z,13.82
2023-05-24T21:59:32.054Z,13.48
2023-05-24T22:04:53.069Z,9.05
2023-05-24T22:10:14.235Z,14.38
2023-05-24T22:15:34.922Z,8.55
2023-05-24T22:20:59.817Z,7.28
2023-05-24T22:26:20.747Z,7.78
2023-05-24T22:31:41.543Z,10.93
2023-05-24T22:37:02.572Z,8.48
2023-05-24T22:42:23.668Z,7.03
2023-05-24T22:47:44.536Z,9.23
2023-05-24T22:53:05.785Z,6.93
2023-05-24T22:58:26.799Z,12.25
2023-05-24T23:03:47.264Z,10.27
2023-05-24T23:09:08.546Z,11.25
2023-05-24T23:14:30.440Z,14.70
2023-05-24T23:19:51.317Z,9.95
2023-05-24T23:25:12.409Z,11.40
2023-05-24T23:30:33.669Z,11.40
2023-05-24T23:35:54.166Z,8.80
2023-05-24T23:41:15.130Z,10.00
2023-05-24T23:46:36.119Z,7.72
2023-05-24T23:51:57.027Z,6.35
2023-05-24T23:57:20.008Z,12.10
